sensor_id;sensor_type;location;lat;lon;timestamp;pressure;altitude;pressure_sealevel;temperature;humidity
48652;BME280;34442;52.362;-1.302;2022-07-04T00:00:57;100804.59;;;13.22;100.00
48652;BME280;34442;52.362;-1.302;2022-07-04T00:03:23;100804.38;;;13.30;100.00
48652;BME280;34442;52.362;-1.302;2022-07-04T00:05:49;100805.41;;;13.22;100.00
48652;BME280;34442;52.362;-1.302;2022-07-04T00:08:15;100790.47;;;13.20;100.00
48652;BME280;34442;52.362;-1.302;2022-07-04T00:10:41;100792.34;;;13.19;100.00
48652;BME280;34442;52.362;-1.302;2022-07-04T00:13:07;100786.13;;;13.19;100.00
48652;BME280;34442;52.362;-1.302;2022-07-04T00:15:33;100790.06;;;13.16;100.00
48652;BME280;34442;52.362;-1.302;2022-07-04T00:17:59;100791.97;;;13.09;100.00
48652;BME280;34442;52.362;-1.302;2022-07-04T00:20:25;100789.47;;;13.07;100.00
48652;BME280;34442;52.362;-1.302;2022-07-04T00:22:51;100782.44;;;13.06;100.00
48652;BME280;34442;52.362;-1.302;2022-07-04T00:25:17;100782.66;;;13.05;100.00
48652;BME280;34442;52.362;-1.302;2022-07-04T00:27:43;100788.22;;;13.10;100.00
48652;BME280;34442;52.362;-1.302;2022-07-04T00:30:10;100783.66;;;13.10;100.00
48652;BME280;34442;52.362;-1.302;2022-07-04T00:32:36;100784.06;;;13.07;100.00
48652;BME280;34442;52.362;-1.302;2022-07-04T00:35:02;100784.47;;;13.11;100.00
48652;BME280;34442;52.362;-1.302;2022-07-04T00:37:28;100792.59;;;13.11;100.00
48652;BME280;34442;52.362;-1.302;2022-07-04T00:39:54;100788.63;;;13.13;100.00
48652;BME280;34442;52.362;-1.302;2022-07-04T00:42:21;100789.47;;;13.07;100.00
48652;BME280;34442;52.362;-1.302;2022-07-04T00:44:47;100784.06;;;13.07;100.00
48652;BME280;34442;52.362;-1.302;2022-07-04T00:47:13;100783.06;;;13.02;100.00
48652;BME280;34442;52.362;-1.302;2022-07-04T00:49:39;100782.25;;;13.01;100.00
48652;BME280;34442;52.362;-1.302;2022-07-04T00:52:07;100771.25;;;12.96;100.00
48652;BME280;34442;52.362;-1.302;2022-07-04T00:54:33;100769.59;;;12.95;100.00
48652;BME280;34442;52.362;-1.302;2022-07-04T00:57:00;100781.84;;;12.91;100.00
48652;BME280;34442;52.362;-1.302;2022-07-04T00:59:26;100785.81;;;12.88;100.00
48652;BME280;34442;52.362;-1.302;2022-07-04T01:01:53;100779.16;;;12.91;100.00
48652;BME280;34442;52.362;-1.302;2022-07-04T01:04:19;100766.28;;;12.86;100.00
48652;BME280;34442;52.362;-1.302;2022-07-04T01:06:45;100770.88;;;12.86;100.00
48652;BME280;34442;52.362;-1.302;2022-07-04T01:09:12;100765.25;;;12.87;100.00
48652;BME280;34442;52.362;-1.302;2022-07-04T01:11:38;100764.22;;;12.88;100.00
48652;BME280;34442;52.362;-1.302;2022-07-04T01:14:04;100768.78;;;12.88;100.00
48652;BME280;34442;52.362;-1.302;2022-07-04T01:16:32;100772.31;;;12.88;100.00
48652;BME280;34442;52.362;-1.302;2022-07-04T01:18:58;100764.63;;;12.85;100.00
48652;BME280;34442;52.362;-1.302;2022-07-04T01:21:24;100770.63;;;12.87;100.00
48652;BME280;34442;52.362;-1.302;2022-07-04T01:23:51;100770.03;;;12.92;100.00
48652;BME280;34442;52.362;-1.302;2022-07-04T01:26:17;100773.31;;;12.94;100.00
48652;BME280;34442;52.362;-1.302;2022-07-04T01:28:44;100769.16;;;12.98;100.00
48652;BME280;34442;52.362;-1.302;2022-07-04T01:31:10;100771.63;;;13.00;100.00
48652;BME280;34442;52.362;-1.302;2022-07-04T01:33:36;100771.25;;;12.96;100.00
48652;BME280;34442;52.362;-1.302;2022-07-04T01:36:02;100750.28;;;12.91;100.00
48652;BME280;34442;52.362;-1.302;2022-07-04T01:38:28;100750.72;;;12.88;100.00
48652;BME280;34442;52.362;-1.302;2022-07-04T01:40:54;100758.81;;;12.88;100.00
48652;BME280;34442;52.362;-1.302;2022-07-04T01:43:20;100749.91;;;12.88;100.00
48652;BME280;34442;52.362;-1.302;2022-07-04T01:45:46;100749.47;;;12.91;100.00
48652;BME280;34442;52.362;-1.302;2022-07-04T01:48:14;100742.84;;;12.87;100.00
48652;BME280;34442;52.362;-1.302;2022-07-04T01:50:40;100756.13;;;12.88;100.00
48652;BME280;34442;52.362;-1.302;2022-07-04T01:53:07;100748.84;;;12.89;100.00
48652;BME280;34442;52.362;-1.302;2022-07-04T01:55:33;100740.34;;;12.85;100.00
48652;BME280;34442;52.362;-1.302;2022-07-04T01:57:59;100742.66;;;12.82;100.00
48652;BME280;34442;52.362;-1.302;2022-07-04T02:00:26;100750.13;;;12.80;100.00
48652;BME280;34442;52.362;-1.302;2022-07-04T02:03:11;100742.25;;;12.78;100.00
48652;BME280;34442;52.362;-1.302;2022-07-04T02:05:37;100742.25;;;12.78;100.00
48652;BME280;34442;52.362;-1.302;2022-07-04T02:08:04;100743.28;;;12.77;100.00
48652;BME280;34442;52.362;-1.302;2022-07-04T02:10:30;100748.91;;;12.76;100.00
48652;BME280;34442;52.362;-1.302;2022-07-04T02:12:56;100738.31;;;12.74;100.00
48652;BME280;34442;52.362;-1.302;2022-07-04T02:17:56;100740.81;;;12.69;100.00
48652;BME280;34442;52.362;-1.302;2022-07-04T02:20:23;100746.63;;;12.66;100.00
48652;BME280;34442;52.362;-1.302;2022-07-04T02:22:49;100745.19;;;12.63;100.00
48652;BME280;34442;52.362;-1.302;2022-07-04T02:25:15;100740.63;;;12.64;100.00
48652;BME280;34442;52.362;-1.302;2022-07-04T02:27:41;100741.25;;;12.59;100.00
48652;BME280;34442;52.362;-1.302;2022-07-04T02:30:07;100739.81;;;12.57;100.00
48652;BME280;34442;52.362;-1.302;2022-07-04T02:32:34;100738.97;;;12.56;100.00
48652;BME280;34442;52.362;-1.302;2022-07-04T02:35:01;100743.56;;;12.56;100.00
48652;BME280;34442;52.362;-1.302;2022-07-04T02:37:27;100745.63;;;12.54;100.00
48652;BME280;34442;52.362;-1.302;2022-07-04T02:39:53;100754.75;;;12.53;100.00
48652;BME280;34442;52.362;-1.302;2022-07-04T02:42:19;100751.88;;;12.48;100.00
48652;BME280;34442;52.362;-1.302;2022-07-04T02:44:45;100759.97;;;12.48;100.00
48652;BME280;34442;52.362;-1.302;2022-07-04T02:47:11;100765.53;;;12.46;100.00
48652;BME280;34442;52.362;-1.302;2022-07-04T02:49:37;100759.13;;;12.47;100.00
48652;BME280;34442;52.362;-1.302;2022-07-04T02:52:03;100768.66;;;12.50;100.00
48652;BME280;34442;52.362;-1.302;2022-07-04T02:54:30;100755.81;;;12.52;100.00
48652;BME280;34442;52.362;-1.302;2022-07-04T02:56:56;100765.53;;;12.46;100.00
48652;BME280;34442;52.362;-1.302;2022-07-04T02:59:22;100756.84;;;12.44;100.00
48652;BME280;34442;52.362;-1.302;2022-07-04T03:01:48;100760.97;;;12.47;100.00
48652;BME280;34442;52.362;-1.302;2022-07-04T03:04:14;100753.72;;;12.40;100.00
48652;BME280;34442;52.362;-1.302;2022-07-04T03:06:40;100754.78;;;12.33;100.00
48652;BME280;34442;52.362;-1.302;2022-07-04T03:09:06;100753.94;;;12.32;100.00
48652;BME280;34442;52.362;-1.302;2022-07-04T03:11:32;100752.06;;;12.33;100.00
48652;BME280;34442;52.362;-1.302;2022-07-04T03:13:58;100748.16;;;12.35;100.00
48652;BME280;34442;52.362;-1.302;2022-07-04T03:16:24;100743.81;;;12.34;100.00
48652;BME280;34442;52.362;-1.302;2022-07-04T03:18:50;100747.31;;;12.35;100.00
48652;BME280;34442;52.362;-1.302;2022-07-04T03:21:16;100747.94;;;12.37;100.00
48652;BME280;34442;52.362;-1.302;2022-07-04T03:23:42;100743.59;;;12.36;100.00
48652;BME280;34442;52.362;-1.302;2022-07-04T03:26:08;100740.66;;;12.37;100.00
48652;BME280;34442;52.362;-1.302;2022-07-04T03:28:35;100722.41;;;12.33;100.00
48652;BME280;34442;52.362;-1.302;2022-07-04T03:31:01;100719.13;;;12.24;100.00
48652;BME280;34442;52.362;-1.302;2022-07-04T03:33:27;100724.50;;;12.17;100.00
48652;BME280;34442;52.362;-1.302;2022-07-04T03:35:53;100727.22;;;12.11;100.00
48652;BME280;34442;52.362;-1.302;2022-07-04T03:38:19;100718.94;;;12.06;100.00
48652;BME280;34442;52.362;-1.302;2022-07-04T03:40:45;100721.63;;;12.06;100.00
48652;BME280;34442;52.362;-1.302;2022-07-04T03:43:11;100723.09;;;12.02;100.00
48652;BME280;34442;52.362;-1.302;2022-07-04T03:45:37;100721.84;;;11.98;100.00
48652;BME280;34442;52.362;-1.302;2022-07-04T03:48:03;100712.91;;;11.97;100.00
48652;BME280;34442;52.362;-1.302;2022-07-04T03:50:29;100719.56;;;11.95;100.00
48652;BME280;34442;52.362;-1.302;2022-07-04T03:52:55;100715.81;;;11.96;100.00
48652;BME280;34442;52.362;-1.302;2022-07-04T03:55:22;100726.00;;;11.94;100.00
48652;BME280;34442;52.362;-1.302;2022-07-04T03:57:48;100723.47;;;11.92;100.00
48652;BME280;34442;52.362;-1.302;2022-07-04T04:00:14;100722.66;;;11.91;100.00
48652;BME280;34442;52.362;-1.302;2022-07-04T04:02:40;100718.72;;;11.87;100.00
48652;BME280;34442;52.362;-1.302;2022-07-04T04:05:07;100724.50;;;11.84;100.00
48652;BME280;34442;52.362;-1.302;2022-07-04T04:07:54;100724.72;;;11.83;100.00
48652;BME280;34442;52.362;-1.302;2022-07-04T04:10:20;100724.09;;;11.87;100.00
48652;BME280;34442;52.362;-1.302;2022-07-04T04:12:46;100727.63;;;11.88;100.00
48652;BME280;34442;52.362;-1.302;2022-07-04T04:15:12;100734.88;;;11.87;100.00
48652;BME280;34442;52.362;-1.302;2022-07-04T04:17:38;100744.63;;;11.88;100.00
48652;BME280;34442;52.362;-1.302;2022-07-04T04:20:05;100741.91;;;11.88;100.00
48652;BME280;34442;52.362;-1.302;2022-07-04T04:22:31;100744.44;;;11.90;100.00
48652;BME280;34442;52.362;-1.302;2022-07-04T04:24:57;100742.97;;;11.94;100.00
48652;BME280;34442;52.362;-1.302;2022-07-04T04:27:23;100748.56;;;11.92;100.00
48652;BME280;34442;52.362;-1.302;2022-07-04T04:29:49;100750.63;;;11.90;100.00
48652;BME280;34442;52.362;-1.302;2022-07-04T04:32:15;100742.56;;;11.90;100.00
48652;BME280;34442;52.362;-1.302;2022-07-04T04:34:42;100744.22;;;11.91;100.00
48652;BME280;34442;52.362;-1.302;2022-07-04T04:37:09;100740.91;;;11.89;100.00
48652;BME280;34442;52.362;-1.302;2022-07-04T04:39:35;100738.00;;;11.91;100.00
48652;BME280;34442;52.362;-1.302;2022-07-04T04:42:01;100745.25;;;11.90;100.00
48652;BME280;34442;52.362;-1.302;2022-07-04T04:44:27;100736.53;;;11.95;100.00
48652;BME280;34442;52.362;-1.302;2022-07-04T04:46:53;100738.41;;;12.01;100.00
48652;BME280;34442;52.362;-1.302;2022-07-04T04:49:19;100739.63;;;12.05;100.00
48652;BME280;34442;52.362;-1.302;2022-07-04T04:51:45;100750.00;;;12.08;100.00
48652;BME280;34442;52.362;-1.302;2022-07-04T04:54:11;100755.00;;;12.11;100.00
48652;BME280;34442;52.362;-1.302;2022-07-04T04:56:37;100747.53;;;12.20;100.00
48652;BME280;34442;52.362;-1.302;2022-07-04T04:59:03;100744.44;;;12.23;100.00
48652;BME280;34442;52.362;-1.302;2022-07-04T05:01:29;100742.56;;;12.24;100.00
48652;BME280;34442;52.362;-1.302;2022-07-04T05:03:55;100751.06;;;12.27;100.00
48652;BME280;34442;52.362;-1.302;2022-07-04T05:06:22;100758.72;;;12.30;100.00
48652;BME280;34442;52.362;-1.302;2022-07-04T05:08:48;100755.81;;;12.38;100.00
48652;BME280;34442;52.362;-1.302;2022-07-04T05:11:14;100755.19;;;12.43;100.00
48652;BME280;34442;52.362;-1.302;2022-07-04T05:13:40;100760.78;;;12.48;100.00
48652;BME280;34442;52.362;-1.302;2022-07-04T05:16:06;100767.81;;;12.49;100.00
48652;BME280;34442;52.362;-1.302;2022-07-04T05:18:32;100762.03;;;12.52;100.00
48652;BME280;34442;52.362;-1.302;2022-07-04T05:20:58;100762.63;;;12.54;100.00
48652;BME280;34442;52.362;-1.302;2022-07-04T05:23:25;100762.44;;;12.56;100.00
48652;BME280;34442;52.362;-1.302;2022-07-04T05:25:51;100762.00;;;12.59;100.00
48652;BME280;34442;52.362;-1.302;2022-07-04T05:28:17;100767.59;;;12.64;100.00
48652;BME280;34442;52.362;-1.302;2022-07-04T05:30:43;100759.69;;;12.69;100.00
48652;BME280;34442;52.362;-1.302;2022-07-04T05:33:09;100758.25;;;12.66;100.00
48652;BME280;34442;52.362;-1.302;2022-07-04T05:35:35;100760.94;;;12.66;100.00
48652;BME280;34442;52.362;-1.302;2022-07-04T05:38:01;100756.78;;;12.71;100.00
48652;BME280;34442;52.362;-1.302;2022-07-04T05:40:27;100764.25;;;12.75;100.00
48652;BME280;34442;52.362;-1.302;2022-07-04T05:42:53;100763.22;;;12.76;100.00
48652;BME280;34442;52.362;-1.302;2022-07-04T05:45:19;100764.00;;;12.83;100.00
48652;BME280;34442;52.362;-1.302;2022-07-04T05:47:45;100763.00;;;12.84;100.00
48652;BME280;34442;52.362;-1.302;2022-07-04T05:50:11;100760.94;;;12.80;100.00
48652;BME280;34442;52.362;-1.302;2022-07-04T05:52:38;100756.38;;;12.74;100.00
48652;BME280;34442;52.362;-1.302;2022-07-04T05:55:04;100751.59;;;12.76;100.00
48652;BME280;34442;52.362;-1.302;2022-07-04T05:57:30;100751.59;;;12.76;100.00
48652;BME280;34442;52.362;-1.302;2022-07-04T05:59:56;100762.16;;;12.77;100.00
48652;BME280;34442;52.362;-1.302;2022-07-04T06:02:22;100752.63;;;12.81;100.00
48652;BME280;34442;52.362;-1.302;2022-07-04T06:04:48;100758.00;;;12.81;100.00
48652;BME280;34442;52.362;-1.302;2022-07-04T06:07:14;100759.03;;;12.87;100.00
48652;BME280;34442;52.362;-1.302;2022-07-04T06:09:40;100759.03;;;12.87;100.00
48652;BME280;34442;52.362;-1.302;2022-07-04T06:12:06;100762.13;;;12.90;100.00
48652;BME280;34442;52.362;-1.302;2022-07-04T06:14:32;100759.59;;;13.02;100.00
48652;BME280;34442;52.362;-1.302;2022-07-04T06:16:58;100762.88;;;13.11;100.00
48652;BME280;34442;52.362;-1.302;2022-07-04T06:19:25;100765.16;;;13.14;100.00
48652;BME280;34442;52.362;-1.302;2022-07-04T06:21:51;100758.50;;;13.23;100.00
48652;BME280;34442;52.362;-1.302;2022-07-04T06:24:17;100760.72;;;13.33;100.00
48652;BME280;34442;52.362;-1.302;2022-07-04T06:26:43;100756.19;;;13.33;100.00
48652;BME280;34442;52.362;-1.302;2022-07-04T06:29:09;100751.56;;;13.40;100.00
48652;BME280;34442;52.362;-1.302;2022-07-04T06:31:35;100744.09;;;13.43;100.00
48652;BME280;34442;52.362;-1.302;2022-07-04T06:34:01;100743.84;;;13.44;100.00
48652;BME280;34442;52.362;-1.302;2022-07-04T06:36:45;100733.69;;;13.46;100.00
48652;BME280;34442;52.362;-1.302;2022-07-04T06:39:11;100738.56;;;13.62;100.00
48652;BME280;34442;52.362;-1.302;2022-07-04T06:41:37;100737.47;;;13.70;100.00
48652;BME280;34442;52.362;-1.302;2022-07-04T06:44:04;100751.31;;;13.80;100.00
48652;BME280;34442;52.362;-1.302;2022-07-04T06:46:30;100747.09;;;13.91;100.00
48652;BME280;34442;52.362;-1.302;2022-07-04T06:48:56;100741.91;;;13.89;100.00
48652;BME280;34442;52.362;-1.302;2022-07-04T06:51:23;100747.97;;;13.85;100.00
48652;BME280;34442;52.362;-1.302;2022-07-04T06:53:49;100751.06;;;13.88;100.00
48652;BME280;34442;52.362;-1.302;2022-07-04T06:56:17;100751.22;;;13.94;100.00
48652;BME280;34442;52.362;-1.302;2022-07-04T06:58:43;100753.25;;;13.98;100.00
48652;BME280;34442;52.362;-1.302;2022-07-04T07:01:09;100743.66;;;14.02;100.00
48652;BME280;34442;52.362;-1.302;2022-07-04T07:03:35;100750.56;;;13.98;100.00
48652;BME280;34442;52.362;-1.302;2022-07-04T07:06:02;100747.59;;;14.06;100.00
48652;BME280;34442;52.362;-1.302;2022-07-04T07:08:29;100747.97;;;14.10;100.00
48652;BME280;34442;52.362;-1.302;2022-07-04T07:10:56;100743.38;;;14.10;100.00
48652;BME280;34442;52.362;-1.302;2022-07-04T07:13:22;100740.63;;;14.17;100.00
48652;BME280;34442;52.362;-1.302;2022-07-04T07:15:51;100741.22;;;14.19;100.00
48652;BME280;34442;52.362;-1.302;2022-07-04T07:18:17;100746.63;;;14.19;100.00
48652;BME280;34442;52.362;-1.302;2022-07-04T07:20:43;100748.72;;;14.24;100.00
48652;BME280;34442;52.362;-1.302;2022-07-04T07:23:09;100746.75;;;14.31;100.00
48652;BME280;34442;52.362;-1.302;2022-07-04T07:25:35;100730.22;;;14.39;100.00
48652;BME280;34442;52.362;-1.302;2022-07-04T07:28:01;100729.56;;;14.44;100.00
48652;BME280;34442;52.362;-1.302;2022-07-04T07:30:28;100733.47;;;14.48;100.00
48652;BME280;34442;52.362;-1.302;2022-07-04T07:32:54;100739.72;;;14.48;100.00
48652;BME280;34442;52.362;-1.302;2022-07-04T07:35:20;100739.72;;;14.48;100.00
48652;BME280;34442;52.362;-1.302;2022-07-04T07:37:47;100727.38;;;14.59;100.00
48652;BME280;34442;52.362;-1.302;2022-07-04T07:40:13;100725.47;;;14.59;100.00
48652;BME280;34442;52.362;-1.302;2022-07-04T07:42:39;100722.56;;;14.61;100.00
48652;BME280;34442;52.362;-1.302;2022-07-04T07:45:06;100720.44;;;14.63;100.00
48652;BME280;34442;52.362;-1.302;2022-07-04T07:47:32;100727.44;;;14.71;100.00
48652;BME280;34442;52.362;-1.302;2022-07-04T07:49:58;100730.53;;;14.74;100.00
48652;BME280;34442;52.362;-1.302;2022-07-04T07:52:24;100723.75;;;14.83;100.00
48652;BME280;34442;52.362;-1.302;2022-07-04T07:54:50;100724.13;;;14.87;100.00
48652;BME280;34442;52.362;-1.302;2022-07-04T07:57:16;100733.91;;;14.88;100.00
48652;BME280;34442;52.362;-1.302;2022-07-04T07:59:42;100735.88;;;14.99;100.00
48652;BME280;34442;52.362;-1.302;2022-07-04T08:02:08;100731.66;;;15.03;100.00
48652;BME280;34442;52.362;-1.302;2022-07-04T08:04:34;100736.81;;;15.05;100.00
48652;BME280;34442;52.362;-1.302;2022-07-04T08:07:02;100733.59;;;15.14;100.00
48652;BME280;34442;52.362;-1.302;2022-07-04T08:09:29;100745.53;;;15.25;100.00
48652;BME280;34442;52.362;-1.302;2022-07-04T08:11:55;100750.19;;;15.36;100.00
48652;BME280;34442;52.362;-1.302;2022-07-04T08:14:21;100741.72;;;15.45;100.00
48652;BME280;34442;52.362;-1.302;2022-07-04T08:16:47;100738.78;;;15.46;100.00
48652;BME280;34442;52.362;-1.302;2022-07-04T08:19:13;100732.91;;;15.49;100.00
48652;BME280;34442;52.362;-1.302;2022-07-04T08:21:39;100740.00;;;15.62;100.00
48652;BME280;34442;52.362;-1.302;2022-07-04T08:24:05;100742.34;;;15.77;100.00
48652;BME280;34442;52.362;-1.302;2022-07-04T08:26:31;100747.88;;;15.82;100.00
48652;BME280;34442;52.362;-1.302;2022-07-04T08:28:58;100751.66;;;15.81;100.00
48652;BME280;34442;52.362;-1.302;2022-07-04T08:31:26;100749.81;;;15.93;100.00
48652;BME280;34442;52.362;-1.302;2022-07-04T08:33:53;100753.50;;;16.22;100.00
48652;BME280;34442;52.362;-1.302;2022-07-04T08:36:19;100757.25;;;16.33;100.00
48652;BME280;34442;52.362;-1.302;2022-07-04T08:38:45;100762.81;;;16.15;100.00
48652;BME280;34442;52.362;-1.302;2022-07-04T08:41:12;100761.88;;;16.09;100.00
48652;BME280;34442;52.362;-1.302;2022-07-04T08:43:41;100769.50;;;16.12;100.00
48652;BME280;34442;52.362;-1.302;2022-07-04T08:46:09;100757.97;;;16.05;100.00
48652;BME280;34442;52.362;-1.302;2022-07-04T08:48:38;100762.63;;;15.86;100.00
48652;BME280;34442;52.362;-1.302;2022-07-04T08:51:15;100760.28;;;15.90;100.00
48652;BME280;34442;52.362;-1.302;2022-07-04T08:53:56;100758.16;;;15.92;100.00
48652;BME280;34442;52.362;-1.302;2022-07-04T08:56:23;100765.44;;;15.79;100.00
48652;BME280;34442;52.362;-1.302;2022-07-04T08:59:09;100754.59;;;15.79;100.00
48652;BME280;34442;52.362;-1.302;2022-07-04T09:01:36;100751.63;;;15.69;100.00
48652;BME280;34442;52.362;-1.302;2022-07-04T09:04:05;100756.72;;;15.77;100.00
48652;BME280;34442;52.362;-1.302;2022-07-04T09:06:31;100748.94;;;15.81;100.00
48652;BME280;34442;52.362;-1.302;2022-07-04T09:08:57;100750.09;;;15.73;100.00
48652;BME280;34442;52.362;-1.302;2022-07-04T09:11:23;100747.88;;;15.82;100.00
48652;BME280;34442;52.362;-1.302;2022-07-04T09:13:49;100740.94;;;15.86;100.00
48652;BME280;34442;52.362;-1.302;2022-07-04T09:16:15;100739.06;;;15.98;100.00
48652;BME280;34442;52.362;-1.302;2022-07-04T09:18:42;100736.84;;;16.07;100.00
48652;BME280;34442;52.362;-1.302;2022-07-04T09:21:09;100747.00;;;16.11;100.00
48652;BME280;34442;52.362;-1.302;2022-07-04T09:23:39;100739.66;;;16.00;100.00
48652;BME280;34442;52.362;-1.302;2022-07-04T09:26:18;100749.09;;;15.98;100.00
48652;BME280;34442;52.362;-1.302;2022-07-04T09:28:53;100745.31;;;15.99;100.00
48652;BME280;34442;52.362;-1.302;2022-07-04T09:31:24;100749.69;;;16.00;100.00
48652;BME280;34442;52.362;-1.302;2022-07-04T09:34:01;100751.34;;;16.01;100.00
48652;BME280;34442;52.362;-1.302;2022-07-04T09:36:40;100753.09;;;15.95;100.00
48652;BME280;34442;52.362;-1.302;2022-07-04T09:39:17;100759.16;;;16.09;100.00
48652;BME280;34442;52.362;-1.302;2022-07-04T09:41:58;100749.81;;;16.28;100.00
48652;BME280;34442;52.362;-1.302;2022-07-04T09:44:47;100760.34;;;16.36;100.00
48652;BME280;34442;52.362;-1.302;2022-07-04T09:47:21;100757.25;;;16.33;100.00
48652;BME280;34442;52.362;-1.302;2022-07-04T09:50:08;100764.00;;;16.19;100.00
48652;BME280;34442;52.362;-1.302;2022-07-04T09:57:53;100764.22;;;16.17;100.00
48652;BME280;34442;52.362;-1.302;2022-07-04T10:00:21;100757.97;;;16.28;100.00
48652;BME280;34442;52.362;-1.302;2022-07-04T10:02:48;100771.19;;;16.36;100.00
48652;BME280;34442;52.362;-1.302;2022-07-04T10:05:25;100771.19;;;16.36;100.00
48652;BME280;34442;52.362;-1.302;2022-07-04T10:07:57;100769.53;;;16.35;100.00
48652;BME280;34442;52.362;-1.302;2022-07-04T10:10:26;100774.72;;;16.49;100.00
48652;BME280;34442;52.362;-1.302;2022-07-04T10:12:53;100765.06;;;16.53;100.00
48652;BME280;34442;52.362;-1.302;2022-07-04T10:15:20;100772.97;;;16.54;100.00
48652;BME280;34442;52.362;-1.302;2022-07-04T10:17:47;100781.13;;;16.54;100.00
48652;BME280;34442;52.362;-1.302;2022-07-04T10:20:14;100776.38;;;16.50;100.00
48652;BME280;34442;52.362;-1.302;2022-07-04T10:22:41;100780.53;;;16.52;100.00
48652;BME280;34442;52.362;-1.302;2022-07-04T10:25:08;100779.22;;;16.55;100.00
48652;BME280;34442;52.362;-1.302;2022-07-04T10:27:35;100776.97;;;16.63;100.00
48652;BME280;34442;52.362;-1.302;2022-07-04T10:30:03;100776.66;;;16.83;100.00
48652;BME280;34442;52.362;-1.302;2022-07-04T10:32:31;100767.06;;;16.81;100.00
48652;BME280;34442;52.362;-1.302;2022-07-04T10:34:58;100761.28;;;16.89;100.00
48652;BME280;34442;52.362;-1.302;2022-07-04T10:37:24;100768.81;;;16.99;100.00
48652;BME280;34442;52.362;-1.302;2022-07-04T10:39:50;100758.16;;;17.09;100.00
48652;BME280;34442;52.362;-1.302;2022-07-04T10:42:24;100757.69;;;17.12;100.00
48652;BME280;34442;52.362;-1.302;2022-07-04T10:44:50;100766.78;;;17.06;100.00
48652;BME280;34442;52.362;-1.302;2022-07-04T10:47:24;100762.81;;;16.97;100.00
48652;BME280;34442;52.362;-1.302;2022-07-04T10:49:51;100766.00;;;16.94;100.00
48652;BME280;34442;52.362;-1.302;2022-07-04T10:52:17;100778.19;;;16.91;100.00
48652;BME280;34442;52.362;-1.302;2022-07-04T10:54:44;100775.13;;;16.88;100.00
48652;BME280;34442;52.362;-1.302;2022-07-04T10:57:20;100774.28;;;16.75;100.00
48652;BME280;34442;52.362;-1.302;2022-07-04T11:02:27;100779.69;;;16.52;100.00
48652;BME280;34442;52.362;-1.302;2022-07-04T11:05:07;100782.16;;;16.53;100.00
48652;BME280;34442;52.362;-1.302;2022-07-04T11:18:00;100775.84;;;17.23;100.00
48652;BME280;34442;52.362;-1.302;2022-07-04T11:20:28;100775.25;;;17.33;100.00
48652;BME280;34442;52.362;-1.302;2022-07-04T11:23:12;100772.25;;;17.34;100.00
48652;BME280;34442;52.362;-1.302;2022-07-04T11:25:40;100771.59;;;17.56;100.00
48652;BME280;34442;52.362;-1.302;2022-07-04T11:28:22;100772.59;;;17.67;100.00
48652;BME280;34442;52.362;-1.302;2022-07-04T11:30:53;100769.63;;;17.68;100.00
48652;BME280;34442;52.362;-1.302;2022-07-04T11:33:22;100774.72;;;17.65;100.00
48652;BME280;34442;52.362;-1.302;2022-07-04T11:36:05;100776.25;;;17.72;100.00
48652;BME280;34442;52.362;-1.302;2022-07-04T11:38:53;100776.81;;;18.03;100.00
48652;BME280;34442;52.362;-1.302;2022-07-04T11:41:29;100772.88;;;18.10;100.00
48652;BME280;34442;52.362;-1.302;2022-07-04T11:44:23;100759.91;;;18.01;100.00
48652;BME280;34442;52.362;-1.302;2022-07-04T11:47:10;100767.78;;;17.85;100.00
48652;BME280;34442;52.362;-1.302;2022-07-04T11:49:45;100767.56;;;17.87;100.00
48652;BME280;34442;52.362;-1.302;2022-07-04T11:52:12;100765.59;;;17.82;100.00
48652;BME280;34442;52.362;-1.302;2022-07-04T11:54:43;100768.31;;;17.99;100.00
48652;BME280;34442;52.362;-1.302;2022-07-04T11:57:21;100767.16;;;18.12;100.00
48652;BME280;34442;52.362;-1.302;2022-07-04T12:02:33;100770.38;;;18.09;100.00
48652;BME280;34442;52.362;-1.302;2022-07-04T12:05:00;100765.00;;;18.14;100.00
48652;BME280;34442;52.362;-1.302;2022-07-04T12:07:28;100767.91;;;18.07;100.00
48652;BME280;34442;52.362;-1.302;2022-07-04T12:09:55;100769.41;;;18.32;100.00
48652;BME280;34442;52.362;-1.302;2022-07-04T12:12:21;100774.66;;;18.39;100.00
48652;BME280;34442;52.362;-1.302;2022-07-04T12:17:37;100764.44;;;18.46;100.00
48652;BME280;34442;52.362;-1.302;2022-07-04T12:20:15;100762.59;;;18.51;100.00
48652;BME280;34442;52.362;-1.302;2022-07-04T12:22:52;100773.16;;;18.65;100.00
48652;BME280;34442;52.362;-1.302;2022-07-04T12:25:24;100770.28;;;18.54;100.00
48652;BME280;34442;52.362;-1.302;2022-07-04T12:27:57;100767.06;;;18.74;100.00
48652;BME280;34442;52.362;-1.302;2022-07-04T12:30:25;100760.84;;;18.79;100.00
48652;BME280;34442;52.362;-1.302;2022-07-04T12:32:56;100755.28;;;18.52;100.00
48652;BME280;34442;52.362;-1.302;2022-07-04T12:35:48;100756.94;;;18.36;100.00
48652;BME280;34442;52.362;-1.302;2022-07-04T12:38:37;100774.34;;;18.18;100.00
48652;BME280;34442;52.362;-1.302;2022-07-04T12:41:05;100781.00;;;17.94;100.00
48652;BME280;34442;52.362;-1.302;2022-07-04T12:46:06;100775.25;;;18.07;100.00
48652;BME280;34442;52.362;-1.302;2022-07-04T12:48:32;100775.19;;;18.19;100.00
48652;BME280;34442;52.362;-1.302;2022-07-04T12:53:40;100760.34;;;18.82;100.00
48652;BME280;34442;52.362;-1.302;2022-07-04T12:56:07;100760.69;;;18.86;100.00
48652;BME280;34442;52.362;-1.302;2022-07-04T12:58:34;100761.66;;;18.79;100.00
48652;BME280;34442;52.362;-1.302;2022-07-04T13:01:00;100763.84;;;18.77;100.00
48652;BME280;34442;52.362;-1.302;2022-07-04T13:03:26;100767.66;;;18.98;100.00
48652;BME280;34442;52.362;-1.302;2022-07-04T13:05:52;100747.06;;;19.07;100.00